sensor_id;sensor_type;location;lat;lon;timestamp;pressure;altitude;pressure_sealevel;temperature;humidity
60373;BME280;46216;52.220;5.134;2023-02-17T00:01:40;102082.06;;;10.32;100.00
60373;BME280;46216;52.220;5.134;2023-02-17T00:04:05;102076.72;;;10.32;100.00
60373;BME280;46216;52.220;5.134;2023-02-17T00:06:31;102070.53;;;10.32;100.00
60373;BME280;46216;52.220;5.134;2023-02-17T00:08:56;102067.13;;;10.30;100.00
60373;BME280;46216;52.220;5.134;2023-02-17T00:11:23;102066.88;;;10.34;100.00
60373;BME280;46216;52.220;5.134;2023-02-17T00:13:50;102076.56;;;10.35;100.00
60373;BME280;46216;52.220;5.134;2023-02-17T00:16:19;102073.16;;;10.33;100.00
60373;BME280;46216;52.220;5.134;2023-02-17T00:18:46;102072.28;;;10.33;100.00
60373;BME280;46216;52.220;5.134;2023-02-17T00:21:17;102073.31;;;10.30;100.00
60373;BME280;46216;52.220;5.134;2023-02-17T00:23:43;102075.03;;;10.31;100.00
60373;BME280;46216;52.220;5.134;2023-02-17T00:26:09;102068.94;;;10.29;100.00
60373;BME280;46216;52.220;5.134;2023-02-17T00:28:35;102076.91;;;10.29;100.00
60373;BME280;46216;52.220;5.134;2023-02-17T00:31:08;102072.44;;;10.30;100.00
60373;BME280;46216;52.220;5.134;2023-02-17T00:33:34;102072.72;;;10.24;100.00
60373;BME280;46216;52.220;5.134;2023-02-17T00:36:04;102075.97;;;10.30;100.00
60373;BME280;46216;52.220;5.134;2023-02-17T00:38:30;102066.41;;;10.26;100.00
60373;BME280;46216;52.220;5.134;2023-02-17T00:40:55;102071.00;;;10.23;100.00
60373;BME280;46216;52.220;5.134;2023-02-17T00:43:20;102071.88;;;10.23;100.00
60373;BME280;46216;52.220;5.134;2023-02-17T00:45:46;102063.88;;;10.23;100.00
60373;BME280;46216;52.220;5.134;2023-02-17T00:48:11;102066.53;;;10.23;100.00
60373;BME280;46216;52.220;5.134;2023-02-17T00:50:36;102068.41;;;10.21;100.00
60373;BME280;46216;52.220;5.134;2023-02-17T00:53:02;102065.69;;;10.23;100.00
60373;BME280;46216;52.220;5.134;2023-02-17T00:55:27;102060.41;;;10.21;100.00
60373;BME280;46216;52.220;5.134;2023-02-17T00:57:52;102056.19;;;10.17;100.00
60373;BME280;46216;52.220;5.134;2023-02-17T01:00:18;102059.47;;;10.22;100.00
60373;BME280;46216;52.220;5.134;2023-02-17T01:02:43;102060.50;;;10.19;100.00
60373;BME280;46216;52.220;5.134;2023-02-17T01:05:08;102062.47;;;10.16;100.00
60373;BME280;46216;52.220;5.134;2023-02-17T01:07:34;102068.09;;;10.10;100.00
60373;BME280;46216;52.220;5.134;2023-02-17T01:10:02;102078.47;;;10.16;100.00
60373;BME280;46216;52.220;5.134;2023-02-17T01:12:27;102078.59;;;10.13;100.00
60373;BME280;46216;52.220;5.134;2023-02-17T01:14:53;102073.59;;;10.07;100.00
60373;BME280;46216;52.220;5.134;2023-02-17T01:17:18;102069.06;;;10.09;100.00
60373;BME280;46216;52.220;5.134;2023-02-17T01:19:43;102064.75;;;10.06;100.00
60373;BME280;46216;52.220;5.134;2023-02-17T01:22:09;102065.03;;;10.00;100.00
60373;BME280;46216;52.220;5.134;2023-02-17T01:24:34;102066.84;;;10.00;100.00
60373;BME280;46216;52.220;5.134;2023-02-17T01:26:59;102065.28;;;9.95;100.00
60373;BME280;46216;52.220;5.134;2023-02-17T01:29:25;102072.38;;;9.95;100.00
60373;BME280;46216;52.220;5.134;2023-02-17T01:31:50;102066.34;;;9.91;100.00
60373;BME280;46216;52.220;5.134;2023-02-17T01:34:15;102064.66;;;9.90;100.00
60373;BME280;46216;52.220;5.134;2023-02-17T01:36:41;102063.09;;;9.86;100.00
60373;BME280;46216;52.220;5.134;2023-02-17T01:39:06;102065.66;;;9.88;100.00
60373;BME280;46216;52.220;5.134;2023-02-17T01:41:31;102061.38;;;9.85;100.00
60373;BME280;46216;52.220;5.134;2023-02-17T01:44:18;102063.31;;;9.82;100.00
60373;BME280;46216;52.220;5.134;2023-02-17T01:46:47;102061.38;;;9.85;100.00
60373;BME280;46216;52.220;5.134;2023-02-17T01:49:18;102061.38;;;9.85;100.00
60373;BME280;46216;52.220;5.134;2023-02-17T01:51:47;102058.00;;;9.82;100.00
60373;BME280;46216;52.220;5.134;2023-02-17T01:54:19;102064.31;;;9.79;100.00
60373;BME280;46216;52.220;5.134;2023-02-17T01:56:47;102068.72;;;9.80;100.00
60373;BME280;46216;52.220;5.134;2023-02-17T01:59:19;102051.78;;;9.81;100.00
60373;BME280;46216;52.220;5.134;2023-02-17T02:01:47;102045.19;;;9.71;100.00
60373;BME280;46216;52.220;5.134;2023-02-17T02:04:14;102037.06;;;9.74;100.00
60373;BME280;46216;52.220;5.134;2023-02-17T02:06:42;102025.50;;;9.75;100.00
60373;BME280;46216;52.220;5.134;2023-02-17T02:09:16;102020.31;;;9.72;100.00
60373;BME280;46216;52.220;5.134;2023-02-17T02:11:43;102008.72;;;9.73;100.00
60373;BME280;46216;52.220;5.134;2023-02-17T02:14:09;102014.84;;;9.75;100.00
60373;BME280;46216;52.220;5.134;2023-02-17T02:22:39;102009.97;;;9.66;100.00
60373;BME280;46216;52.220;5.134;2023-02-17T02:28:06;102005.75;;;9.62;100.00
60373;BME280;46216;52.220;5.134;2023-02-17T02:33:05;101989.84;;;9.60;100.00
60373;BME280;46216;52.220;5.134;2023-02-17T02:38:36;101990.94;;;9.56;100.00
60373;BME280;46216;52.220;5.134;2023-02-17T02:41:10;102003.16;;;9.60;100.00
60373;BME280;46216;52.220;5.134;2023-02-17T02:43:38;101999.63;;;9.60;100.00
60373;BME280;46216;52.220;5.134;2023-02-17T02:46:04;101991.78;;;9.57;100.00
60373;BME280;46216;52.220;5.134;2023-02-17T02:48:29;101996.09;;;9.59;100.00
60373;BME280;46216;52.220;5.134;2023-02-17T03:01:45;101998.81;;;9.58;100.00
60373;BME280;46216;52.220;5.134;2023-02-17T03:04:38;101988.38;;;9.55;100.00
60373;BME280;46216;52.220;5.134;2023-02-17T03:07:37;101991.78;;;9.57;100.00
60373;BME280;46216;52.220;5.134;2023-02-17T03:10:06;101977.63;;;9.56;100.00
60373;BME280;46216;52.220;5.134;2023-02-17T03:12:52;101980.19;;;9.58;100.00
60373;BME280;46216;52.220;5.134;2023-02-17T03:15:26;101974.13;;;9.56;100.00
60373;BME280;46216;52.220;5.134;2023-02-17T03:17:56;101968.84;;;9.54;100.00
60373;BME280;46216;52.220;5.134;2023-02-17T03:20:22;101963.63;;;9.53;100.00
60373;BME280;46216;52.220;5.134;2023-02-17T03:22:48;101954.78;;;9.52;100.00
60373;BME280;46216;52.220;5.134;2023-02-17T03:25:14;101944.34;;;9.47;100.00
60373;BME280;46216;52.220;5.134;2023-02-17T03:27:39;101946.69;;;9.54;100.00
60373;BME280;46216;52.220;5.134;2023-02-17T03:30:06;101937.00;;;9.53;100.00
60373;BME280;46216;52.220;5.134;2023-02-17T03:32:31;101936.16;;;9.52;100.00
60373;BME280;46216;52.220;5.134;2023-02-17T03:34:57;101931.84;;;9.50;100.00
60373;BME280;46216;52.220;5.134;2023-02-17T03:37:22;101928.22;;;9.51;100.00
60373;BME280;46216;52.220;5.134;2023-02-17T03:39:47;101929.19;;;9.50;100.00
60373;BME280;46216;52.220;5.134;2023-02-17T03:42:13;101928.16;;;9.52;100.00
60373;BME280;46216;52.220;5.134;2023-02-17T03:44:38;101931.59;;;9.54;100.00
60373;BME280;46216;52.220;5.134;2023-02-17T03:47:03;101916.81;;;9.48;100.00
60373;BME280;46216;52.220;5.134;2023-02-17T03:49:29;101931.69;;;9.53;100.00
60373;BME280;46216;52.220;5.134;2023-02-17T03:51:54;101924.72;;;9.50;100.00
60373;BME280;46216;52.220;5.134;2023-02-17T03:54:19;101924.66;;;9.52;100.00
60373;BME280;46216;52.220;5.134;2023-02-17T03:56:45;101926.22;;;9.56;100.00
60373;BME280;46216;52.220;5.134;2023-02-17T03:59:10;101912.97;;;9.54;100.00
60373;BME280;46216;52.220;5.134;2023-02-17T04:01:36;101925.34;;;9.55;100.00
60373;BME280;46216;52.220;5.134;2023-02-17T04:04:01;101907.56;;;9.56;100.00
60373;BME280;46216;52.220;5.134;2023-02-17T04:06:27;101925.91;;;9.62;100.00
60373;BME280;46216;52.220;5.134;2023-02-17T04:08:52;101919.00;;;9.58;100.00
60373;BME280;46216;52.220;5.134;2023-02-17T04:11:17;101919.78;;;9.60;100.00
60373;BME280;46216;52.220;5.134;2023-02-17T04:13:43;101928.78;;;9.57;100.00
60373;BME280;46216;52.220;5.134;2023-02-17T04:16:08;101942.78;;;9.61;100.00
60373;BME280;46216;52.220;5.134;2023-02-17T04:18:34;101943.03;;;9.56;100.00
60373;BME280;46216;52.220;5.134;2023-02-17T04:21:00;101943.44;;;9.66;100.00
60373;BME280;46216;52.220;5.134;2023-02-17T04:23:26;101933.78;;;9.63;100.00
60373;BME280;46216;52.220;5.134;2023-02-17T04:25:51;101935.34;;;9.67;100.00
60373;BME280;46216;52.220;5.134;2023-02-17T04:28:17;101927.16;;;9.72;100.00
60373;BME280;46216;52.220;5.134;2023-02-17T04:30:44;101924.50;;;9.72;100.00
60373;BME280;46216;52.220;5.134;2023-02-17T04:33:09;101914.75;;;9.71;100.00
60373;BME280;46216;52.220;5.134;2023-02-17T04:35:35;101921.66;;;9.75;100.00
60373;BME280;46216;52.220;5.134;2023-02-17T04:38:00;101922.38;;;9.79;100.00
60373;BME280;46216;52.220;5.134;2023-02-17T04:40:25;101913.28;;;9.83;100.00
60373;BME280;46216;52.220;5.134;2023-02-17T04:42:51;101912.56;;;9.79;100.00
60373;BME280;46216;52.220;5.134;2023-02-17T04:45:16;101909.66;;;9.84;100.00
60373;BME280;46216;52.220;5.134;2023-02-17T04:47:42;101914.97;;;9.84;100.00
60373;BME280;46216;52.220;5.134;2023-02-17T04:50:08;101900.66;;;9.86;100.00
60373;BME280;46216;52.220;5.134;2023-02-17T04:52:34;101905.72;;;9.91;100.00
60373;BME280;46216;52.220;5.134;2023-02-17T04:54:59;101907.63;;;9.89;100.00
60373;BME280;46216;52.220;5.134;2023-02-17T04:57:25;101922.41;;;9.94;100.00
60373;BME280;46216;52.220;5.134;2023-02-17T04:59:51;101919.53;;;9.99;100.00
60373;BME280;46216;52.220;5.134;2023-02-17T05:02:16;101925.69;;;10.00;100.00
60373;BME280;46216;52.220;5.134;2023-02-17T05:04:42;101931.03;;;10.00;100.00
60373;BME280;46216;52.220;5.134;2023-02-17T05:07:07;101937.13;;;10.02;100.00
60373;BME280;46216;52.220;5.134;2023-02-17T05:09:32;101930.72;;;10.06;100.00
60373;BME280;46216;52.220;5.134;2023-02-17T05:11:58;101935.00;;;10.08;100.00
60373;BME280;46216;52.220;5.134;2023-02-17T05:14:23;101936.63;;;10.11;100.00
60373;BME280;46216;52.220;5.134;2023-02-17T05:16:48;101913.34;;;10.14;100.00
60373;BME280;46216;52.220;5.134;2023-02-17T05:19:14;101905.47;;;10.13;100.00
60373;BME280;46216;52.220;5.134;2023-02-17T05:21:39;101909.84;;;10.14;100.00
60373;BME280;46216;52.220;5.134;2023-02-17T05:24:04;101924.16;;;10.11;100.00
60373;BME280;46216;52.220;5.134;2023-02-17T05:26:30;101929.34;;;10.14;100.00
60373;BME280;46216;52.220;5.134;2023-02-17T05:28:55;101916.88;;;10.15;100.00
60373;BME280;46216;52.220;5.134;2023-02-17T05:31:21;101905.47;;;10.13;100.00
60373;BME280;46216;52.220;5.134;2023-02-17T05:33:46;101910.63;;;10.16;100.00
60373;BME280;46216;52.220;5.134;2023-02-17T05:36:14;101914.38;;;10.12;100.00
60373;BME280;46216;52.220;5.134;2023-02-17T05:38:40;101906.56;;;10.09;100.00
60373;BME280;46216;52.220;5.134;2023-02-17T05:41:05;101910.09;;;10.09;100.00
60373;BME280;46216;52.220;5.134;2023-02-17T05:43:31;101894.44;;;10.03;100.00
60373;BME280;46216;52.220;5.134;2023-02-17T05:46:01;101879.47;;;10.01;100.00
60373;BME280;46216;52.220;5.134;2023-02-17T05:48:27;101891.63;;;10.06;100.00
60373;BME280;46216;52.220;5.134;2023-02-17T05:50:52;101893.25;;;10.09;100.00
60373;BME280;46216;52.220;5.134;2023-02-17T05:53:17;101888.09;;;10.06;100.00
60373;BME280;46216;52.220;5.134;2023-02-17T05:55:43;101895.94;;;10.09;100.00
60373;BME280;46216;52.220;5.134;2023-02-17T05:58:08;101882.66;;;10.07;100.00
60373;BME280;46216;52.220;5.134;2023-02-17T06:00:33;101881.56;;;10.11;100.00
60373;BME280;46216;52.220;5.134;2023-02-17T06:02:58;101881.50;;;10.13;100.00
60373;BME280;46216;52.220;5.134;2023-02-17T06:05:24;101886.66;;;10.16;100.00
60373;BME280;46216;52.220;5.134;2023-02-17T06:07:49;101887.41;;;10.18;100.00
60373;BME280;46216;52.220;5.134;2023-02-17T06:10:14;101881.31;;;10.16;100.00
60373;BME280;46216;52.220;5.134;2023-02-17T06:12:40;101889.16;;;10.19;100.00
60373;BME280;46216;52.220;5.134;2023-02-17T06:15:06;101894.94;;;10.27;100.00
60373;BME280;46216;52.220;5.134;2023-02-17T06:17:31;101877.16;;;10.28;100.00
60373;BME280;46216;52.220;5.134;2023-02-17T06:19:56;101867.28;;;10.30;100.00
60373;BME280;46216;52.220;5.134;2023-02-17T06:22:22;101868.91;;;10.32;100.00
60373;BME280;46216;52.220;5.134;2023-02-17T06:24:48;101862.63;;;10.33;100.00
60373;BME280;46216;52.220;5.134;2023-02-17T06:27:13;101855.34;;;10.37;100.00
60373;BME280;46216;52.220;5.134;2023-02-17T06:29:39;101862.31;;;10.39;100.00
60373;BME280;46216;52.220;5.134;2023-02-17T06:32:05;101853.78;;;10.33;100.00
60373;BME280;46216;52.220;5.134;2023-02-17T06:34:30;101850.59;;;10.42;100.00
60373;BME280;46216;52.220;5.134;2023-02-17T06:36:56;101855.69;;;10.47;100.00
60373;BME280;46216;52.220;5.134;2023-02-17T06:39:22;101845.78;;;10.49;100.00
60373;BME280;46216;52.220;5.134;2023-02-17T06:41:47;101859.09;;;10.49;100.00
60373;BME280;46216;52.220;5.134;2023-02-17T06:44:12;101857.97;;;10.53;100.00
60373;BME280;46216;52.220;5.134;2023-02-17T06:46:37;101853.59;;;10.52;100.00
60373;BME280;46216;52.220;5.134;2023-02-17T06:49:04;101844.84;;;10.50;100.00
60373;BME280;46216;52.220;5.134;2023-02-17T06:51:30;101854.28;;;10.55;100.00
60373;BME280;46216;52.220;5.134;2023-02-17T06:53:55;101852.59;;;10.54;100.00
60373;BME280;46216;52.220;5.134;2023-02-17T06:56:21;101843.47;;;10.58;100.00
60373;BME280;46216;52.220;5.134;2023-02-17T06:58:47;101831.44;;;10.51;100.00
60373;BME280;46216;52.220;5.134;2023-02-17T07:01:30;101850.50;;;10.59;100.00
60373;BME280;46216;52.220;5.134;2023-02-17T07:03:56;101861.00;;;10.62;100.00
60373;BME280;46216;52.220;5.134;2023-02-17T07:06:22;101857.56;;;10.60;100.00
60373;BME280;46216;52.220;5.134;2023-02-17T07:08:48;101860.13;;;10.62;100.00
60373;BME280;46216;52.220;5.134;2023-02-17T07:11:14;101876.13;;;10.62;100.00
60373;BME280;46216;52.220;5.134;2023-02-17T07:13:40;101892.91;;;10.64;100.00
60373;BME280;46216;52.220;5.134;2023-02-17T07:16:07;101883.00;;;10.66;100.00
60373;BME280;46216;52.220;5.134;2023-02-17T07:18:32;101900.56;;;10.70;100.00
60373;BME280;46216;52.220;5.134;2023-02-17T07:20:58;101883.63;;;10.71;100.00
60373;BME280;46216;52.220;5.134;2023-02-17T07:23:23;101864.97;;;10.71;100.00
60373;BME280;46216;52.220;5.134;2023-02-17T07:25:49;101870.13;;;10.74;100.00
60373;BME280;46216;52.220;5.134;2023-02-17T07:28:14;101860.38;;;10.73;100.00
60373;BME280;46216;52.220;5.134;2023-02-17T07:30:40;101866.59;;;10.74;100.00
60373;BME280;46216;52.220;5.134;2023-02-17T07:33:06;101860.13;;;10.78;100.00
60373;BME280;46216;52.220;5.134;2023-02-17T07:35:32;101860.13;;;10.78;100.00
60373;BME280;46216;52.220;5.134;2023-02-17T07:37:58;101852.03;;;10.79;100.00
60373;BME280;46216;52.220;5.134;2023-02-17T07:40:24;101859.09;;;10.80;100.00
60373;BME280;46216;52.220;5.134;2023-02-17T07:42:50;101866.16;;;10.81;100.00
60373;BME280;46216;52.220;5.134;2023-02-17T07:45:16;101860.66;;;10.84;100.00
60373;BME280;46216;52.220;5.134;2023-02-17T07:47:41;101868.88;;;10.80;100.00
60373;BME280;46216;52.220;5.134;2023-02-17T07:50:07;101861.50;;;10.85;100.00
60373;BME280;46216;52.220;5.134;2023-02-17T07:52:33;101865.81;;;10.87;100.00
60373;BME280;46216;52.220;5.134;2023-02-17T07:54:58;101870.34;;;10.85;100.00
60373;BME280;46216;52.220;5.134;2023-02-17T07:57:24;101873.03;;;10.85;100.00
60373;BME280;46216;52.220;5.134;2023-02-17T07:59:49;101869.56;;;10.83;100.00
60373;BME280;46216;52.220;5.134;2023-02-17T08:02:15;101893.56;;;10.83;100.00
60373;BME280;46216;52.220;5.134;2023-02-17T08:04:40;101890.56;;;10.89;100.00
60373;BME280;46216;52.220;5.134;2023-02-17T08:07:06;101881.88;;;10.86;100.00
60373;BME280;46216;52.220;5.134;2023-02-17T08:09:31;101882.91;;;10.83;100.00
60373;BME280;46216;52.220;5.134;2023-02-17T08:12:17;101880.06;;;10.86;100.00
60373;BME280;46216;52.220;5.134;2023-02-17T08:15:02;101889.03;;;10.85;100.00
60373;BME280;46216;52.220;5.134;2023-02-17T08:17:28;101889.03;;;10.85;100.00
60373;BME280;46216;52.220;5.134;2023-02-17T08:19:54;101899.09;;;10.80;100.00
60373;BME280;46216;52.220;5.134;2023-02-17T08:22:20;101929.28;;;10.81;100.00
60373;BME280;46216;52.220;5.134;2023-02-17T08:24:46;101941.16;;;10.75;100.00
60373;BME280;46216;52.220;5.134;2023-02-17T08:27:13;101927.03;;;10.73;100.00
60373;BME280;46216;52.220;5.134;2023-02-17T08:29:38;101907.63;;;10.71;100.00
60373;BME280;46216;52.220;5.134;2023-02-17T08:32:04;101920.16;;;10.69;100.00
60373;BME280;46216;52.220;5.134;2023-02-17T08:34:29;101918.63;;;10.65;100.00
60373;BME280;46216;52.220;5.134;2023-02-17T08:37:01;101915.69;;;10.70;100.00
60373;BME280;46216;52.220;5.134;2023-02-17T08:39:29;101928.31;;;10.66;100.00
60373;BME280;46216;52.220;5.134;2023-02-17T08:41:54;101931.63;;;10.71;100.00
60373;BME280;46216;52.220;5.134;2023-02-17T08:44:20;101931.00;;;10.66;100.00
60373;BME280;46216;52.220;5.134;2023-02-17T08:46:47;101926.63;;;10.65;100.00
60373;BME280;46216;52.220;5.134;2023-02-17T08:49:14;101927.56;;;10.64;100.00
60373;BME280;46216;52.220;5.134;2023-02-17T08:51:40;101922.25;;;10.64;100.00
60373;BME280;46216;52.220;5.134;2023-02-17T08:54:07;101921.28;;;10.65;100.00
60373;BME280;46216;52.220;5.134;2023-02-17T08:56:33;101920.44;;;10.64;100.00
60373;BME280;46216;52.220;5.134;2023-02-17T08:58:59;101921.28;;;10.65;100.00
60373;BME280;46216;52.220;5.134;2023-02-17T09:01:25;101922.66;;;10.72;100.00
60373;BME280;46216;52.220;5.134;2023-02-17T09:03:51;101928.94;;;10.71;100.00
60373;BME280;46216;52.220;5.134;2023-02-17T09:06:18;101927.41;;;10.67;100.00
60373;BME280;46216;52.220;5.134;2023-02-17T09:08:44;101936.94;;;10.71;100.00
60373;BME280;46216;52.220;5.134;2023-02-17T09:11:09;101915.34;;;10.76;100.00
60373;BME280;46216;52.220;5.134;2023-02-17T09:13:35;101923.09;;;10.80;100.00
60373;BME280;46216;52.220;5.134;2023-02-17T09:16:01;101925.56;;;10.83;100.00
60373;BME280;46216;52.220;5.134;2023-02-17T09:18:27;101924.66;;;10.84;100.00
60373;BME280;46216;52.220;5.134;2023-02-17T09:20:52;101910.19;;;10.88;100.00
60373;BME280;46216;52.220;5.134;2023-02-17T09:23:18;101911.72;;;10.93;100.00
60373;BME280;46216;52.220;5.134;2023-02-17T09:25:43;101907.94;;;10.97;100.00
60373;BME280;46216;52.220;5.134;2023-02-17T09:28:10;101924.88;;;10.96;100.00
60373;BME280;46216;52.220;5.134;2023-02-17T09:30:35;101917.75;;;10.96;100.00
60373;BME280;46216;52.220;5.134;2023-02-17T09:33:01;101919.22;;;11.02;100.00
60373;BME280;46216;52.220;5.134;2023-02-17T09:35:26;101923.59;;;11.03;100.00
60373;BME280;46216;52.220;5.134;2023-02-17T09:37:52;101913.44;;;11.09;100.00
60373;BME280;46216;52.220;5.134;2023-02-17T09:40:23;101910.31;;;11.17;100.00
60373;BME280;46216;52.220;5.134;2023-02-17T09:42:52;101903.19;;;11.18;100.00
60373;BME280;46216;52.220;5.134;2023-02-17T09:45:25;101897.06;;;11.16;100.00
60373;BME280;46216;52.220;5.134;2023-02-17T09:47:56;101894.13;;;11.20;100.00
60373;BME280;46216;52.220;5.134;2023-02-17T09:50:28;101885.59;;;11.29;100.00
60373;BME280;46216;52.220;5.134;2023-02-17T09:53:13;101903.47;;;11.27;100.00
60373;BME280;46216;52.220;5.134;2023-02-17T09:55:45;101897.03;;;11.31;100.00
60373;BME280;46216;52.220;5.134;2023-02-17T09:58:16;101907.34;;;11.37;100.00
60373;BME280;46216;52.220;5.134;2023-02-17T10:00:45;101900.09;;;11.40;100.00
60373;BME280;46216;52.220;5.134;2023-02-17T10:03:38;101892.28;;;11.36;100.00
60373;BME280;46216;52.220;5.134;2023-02-17T10:11:34;101918.00;;;11.37;100.00
60373;BME280;46216;52.220;5.134;2023-02-17T10:14:06;101924.22;;;11.38;100.00
60373;BME280;46216;52.220;5.134;2023-02-17T10:16:38;101935.94;;;11.35;100.00
60373;BME280;46216;52.220;5.134;2023-02-17T10:19:12;101938.16;;;11.43;100.00
60373;BME280;46216;52.220;5.134;2023-02-17T10:21:45;101947.97;;;11.43;100.00
60373;BME280;46216;52.220;5.134;2023-02-17T10:24:11;101941.09;;;11.39;100.00
60373;BME280;46216;52.220;5.134;2023-02-17T10:34:57;101943.22;;;11.48;100.00
60373;BME280;46216;52.220;5.134;2023-02-17T10:37:39;101938.66;;;11.50;100.00
60373;BME280;46216;52.220;5.134;2023-02-17T10:40:15;101935.41;;;11.45;100.00
60373;BME280;46216;52.220;5.134;2023-02-17T10:42:41;101925.13;;;11.53;100.00
60373;BME280;46216;52.220;5.134;2023-02-17T10:47:34;101938.47;;;11.53;100.00
60373;BME280;46216;52.220;5.134;2023-02-17T10:50:02;101956.19;;;11.54;100.00
60373;BME280;46216;52.220;5.134;2023-02-17T10:52:35;101938.47;;;11.53;100.00
60373;BME280;46216;52.220;5.134;2023-02-17T10:55:10;101968.25;;;11.61;100.00
60373;BME280;46216;52.220;5.134;2023-02-17T10:57:39;101976.94;;;11.65;100.00
60373;BME280;46216;52.220;5.134;2023-02-17T11:00:07;101962.53;;;11.67;100.00
60373;BME280;46216;52.220;5.134;2023-02-17T11:02:40;101962.72;;;11.64;100.00
60373;BME280;46216;52.220;5.134;2023-02-17T11:05:06;101969.59;;;11.68;100.00
60373;BME280;46216;52.220;5.134;2023-02-17T11:07:35;101965.13;;;11.69;100.00
60373;BME280;46216;52.220;5.134;2023-02-17T11:10:18;101976.00;;;11.66;100.00
60373;BME280;46216;52.220;5.134;2023-02-17T11:12:45;101973.81;;;11.72;100.00
60373;BME280;46216;52.220;5.134;2023-02-17T11:15:23;101950.72;;;11.71;100.00
60373;BME280;46216;52.220;5.134;2023-02-17T11:17:50;101987.06;;;11.74;100.00
60373;BME280;46216;52.220;5.134;2023-02-17T11:22:47;101985.25;;;11.74;100.00
60373;BME280;46216;52.220;5.134;2023-02-17T11:25:32;102001.28;;;11.74;100.00
60373;BME280;46216;52.220;5.134;2023-02-17T11:28:04;102005.78;;;11.74;100.00
60373;BME280;46216;52.220;5.134;2023-02-17T11:30:33;102007.31;;;11.78;100.00
60373;BME280;46216;52.220;5.134;2023-02-17T11:33:10;102005.69;;;11.75;100.00
60373;BME280;46216;52.220;5.134;2023-02-17T11:38:09;102007.59;;;11.73;100.00
60373;BME280;46216;52.220;5.134;2023-02-17T11:40:35;102004.72;;;11.76;100.00
60373;BME280;46216;52.220;5.134;2023-02-17T11:43:01;102006.63;;;11.74;100.00
60373;BME280;46216;52.220;5.134;2023-02-17T11:45:39;102011.78;;;11.77;100.00
60373;BME280;46216;52.220;5.134;2023-02-17T11:48:46;102024.75;;;11.69;100.00
60373;BME280;46216;52.220;5.134;2023-02-17T11:54:22;102017.75;;;11.67;100.00
60373;BME280;46216;52.220;5.134;2023-02-17T12:02:52;102032.00;;;11.51;100.00
60373;BME280;46216;52.220;5.134;2023-02-17T12:08:26;102032.69;;;11.55;100.00
60373;BME280;46216;52.220;5.134;2023-02-17T12:11:00;102040.28;;;11.47;100.00
60373;BME280;46216;52.220;5.134;2023-02-17T12:13:54;102044.66;;;11.48;100.00
60373;BME280;46216;52.220;5.134;2023-02-17T12:16:41;102044.25;;;11.40;100.00
60373;BME280;46216;52.220;5.134;2023-02-17T12:20:29;102044.06;;;11.43;100.00
60373;BME280;46216;52.220;5.134;2023-02-17T12:27:52;102055.19;;;11.35;100.00
60373;BME280;46216;52.220;5.134;2023-02-17T12:39:08;102046.66;;;11.28;100.00
60373;BME280;46216;52.220;5.134;2023-02-17T12:41:22;102057.19;;;11.31;100.00
60373;BME280;46216;52.220;5.134;2023-02-17T12:43:53;102053.38;;;11.35;100.00
60373;BME280;46216;52.220;5.134;2023-02-17T12:46:24;102060.94;;;11.27;100.00
60373;BME280;46216;52.220;5.134;2023-02-17T12:48:55;102064.91;;;11.20;100.00
60373;BME280;46216;52.220;5.134;2023-02-17T12:51:38;102064.50;;;11.28;100.00
60373;BME280;46216;52.220;5.134;2023-02-17T12:54:16;102062.50;;;11.31;100.00
60373;BME280;46216;52.220;5.134;2023-02-17T13:02:12;102050.53;;;11.39;100.00
60373;BME280;46216;52.220;5.134;2023-02-17T13:04:38;102045.03;;;11.42;100.00
60373;BME280;46216;52.220;5.134;2023-02-17T13:09:53;102048.00;;;11.51;100.00
60373;BME280;46216;52.220;5.134;2023-02-17T13:14:49;102047.84;;;11.54;100.00
60373;BME280;46216;52.220;5.134;2023-02-17T13:17:32;102037.16;;;11.54;100.00
60373;BME280;46216;52.220;5.134;2023-02-17T13:22:30;102071.78;;;11.56;100.00
60373;BME280;46216;52.220;5.134;2023-02-17T13:24:56;102077.81;;;11.59;100.00
60373;BME280;46216;52.220;5.134;2023-02-17T13:33:26;102060.78;;;11.62;100.00
60373;BME280;46216;52.220;5.134;2023-02-17T13:35:52;102059.47;;;11.69;100.00
60373;BME280;46216;52.220;5.134;2023-02-17T13:38:28;102064.19;;;11.64;100.00
60373;BME280;46216;52.220;5.134;2023-02-17T13:41:01;102057.81;;;11.67;100.00
60373;BME280;46216;52.220;5.134;2023-02-17T13:43:29;102061.28;;;11.69;100.00
60373;BME280;46216;52.220;5.134;2023-02-17T13:46:00;102059.00;;;11.77;100.00
60373;BME280;46216;52.220;5.134;2023-02-17T13:48:28;102057.97;;;11.79;100.00
60373;BME280;46216;52.220;5.134;2023-02-17T13:50:57;102040.22;;;11.78;100.00
60373;BME280;46216;52.220;5.134;2023-02-17T13:55:54;102053.25;;;11.84;100.00
60373;BME280;46216;52.220;5.134;2023-02-17T13:58:29;102051.66;;;11.80;100.00
60373;BME280;46216;52.220;5.134;2023-02-17T14:00:55;102054.03;;;11.87;100.00
60373;BME280;46216;52.220;5.134;2023-02-17T14:03:49;102039.81;;;11.86;100.00
60373;BME280;46216;52.220;5.134;2023-02-17T14:08:46;102043.19;;;12.04;100.00
60373;BME280;46216;52.220;5.134;2023-02-17T14:11:16;102046.06;;;12.01;100.00
60373;BME280;46216;52.220;5.134;2023-02-17T14:13:44;102057.63;;;12.16;100.00
60373;BME280;46216;52.220;5.134;2023-02-17T14:17:12;102068.25;;;12.17;100.00
60373;BME280;46216;52.220;5.134;2023-02-17T14:19:18;102045.72;;;12.21;100.00
60373;BME280;46216;52.220;5.134;2023-02-17T14:21:57;102042.72;;;12.12;100.00
60373;BME280;46216;52.220;5.134;2023-02-17T14:24:33;102054.88;;;12.17;100.00
60373;BME280;46216;52.220;5.134;2023-02-17T14:27:05;102061.84;;;12.20;100.00